OE6SDG Weather Reports


time (UTC)temp
C
wind
direction
speed
KPH
gust
KPH
rain 1hr
cm
rain 24hr
cm
rain mn
cm
humidity
%
barometer
mb
20190424133006 19 0 0.0 11.3 0.00 0.05 0.00 67 1012.0
20190424130006 20 266 1.6 11.3 0.00 0.05 0.00 61 1012.2
20190424123006 22 315 4.8 20.9 0.00 0.05 0.00 56 1012.3
20190424120005 21 268 4.8 12.9 0.00 0.05 0.00 59 1012.3
20190424113007 21 305 3.2 16.1 0.00 0.05 0.00 61 1012.3
20190424110006 18 222 6.4 16.1 0.00 0.05 0.00 71 1012.6
20190424103005 17 315 3.2 8.0 0.00 0.05 0.00 72 1012.9
20190424100007 15 204 0.0 12.9 0.00 0.05 0.00 77 1012.8
20190424093007 15 180 1.6 9.7 0.00 0.05 0.00 79 1013.0
20190424090006 15 293 3.2 11.3 0.00 0.05 0.00 81 1013.2
20190424083006 13 135 3.2 9.7 0.00 0.05 0.00 94 1013.0
20190424080005 13 90 0.0 3.2 0.00 0.05 0.00 98 1012.9
20190424073006 12 137 0.0 8.0 0.00 0.05 0.00 97 1012.7
20190424070005 11 90 0.0 0.0 0.00 0.05 0.00 98 1012.7
20190424063006 11 180 0.0 0.0 0.00 0.05 0.00 98 1012.6
20190424060006 11 139 0.0 0.0 0.00 0.05 0.00 98 1012.4
20190424053008 11 270 0.0 0.0 0.00 0.05 0.00 98 1012.2
20190424050006 11 180 0.0 0.0 0.00 0.05 0.00 99 1012.1
20190424043006 10 180 0.0 0.0 0.00 0.05 0.00 99 1011.7
20190424040005 10 270 0.0 0.0 0.00 0.05 0.00 99 1011.5
20190424033006 10 222 0.0 1.6 0.00 0.05 0.00 99 1011.5
20190424030007 10 178 0.0 4.8 0.00 0.05 0.00 99 1011.1
20190424023006 10 221 0.0 0.0 0.00 0.05 0.00 99 1011.1
20190424020006 10 183 0.0 3.2 0.03 0.05 0.00 99 1011.1
20190424013008 10 182 0.0 1.6 0.00 0.05 0.00 91 1010.2
20190423143007 10 135 0.0 0.0 0.05 0.05 0.05 90 1010.1
20190423140005 10 225 0.0 4.8 0.03 0.03 0.03 88 1010.3